createdAt,value
2023-02-15T00:02:04.350Z,94.36
2023-02-15T00:04:45.815Z,94.42
2023-02-15T00:07:15.597Z,94.62
2023-02-15T00:09:43.081Z,94.81
2023-02-15T00:12:11.528Z,94.30
2023-02-15T00:14:39.047Z,93.89
2023-02-15T00:17:06.529Z,94.32
2023-02-15T00:19:34.050Z,94.17
2023-02-15T00:22:01.524Z,94.73
2023-02-15T00:24:30.399Z,94.46
2023-02-15T00:26:57.842Z,93.42
2023-02-15T00:29:25.308Z,93.83
2023-02-15T00:31:53.364Z,94.34
2023-02-15T00:34:22.755Z,94.29
2023-02-15T00:36:50.391Z,94.27
2023-02-15T00:39:18.830Z,93.38
2023-02-15T00:41:48.225Z,93.48
2023-02-15T00:44:16.379Z,94.57
2023-02-15T00:46:44.235Z,94.54
2023-02-15T00:49:12.275Z,94.42
2023-02-15T00:51:40.293Z,94.09
2023-02-15T00:54:07.926Z,94.49
2023-02-15T00:56:35.467Z,93.87
2023-02-15T00:59:04.471Z,92.13
2023-02-15T01:01:32.139Z,91.08
2023-02-15T01:03:59.805Z,91.17
2023-02-15T01:06:27.269Z,91.98
2023-02-15T01:08:54.766Z,93.04
2023-02-15T01:11:23.729Z,93.47
2023-02-15T01:13:52.249Z,93.62
2023-02-15T01:16:21.634Z,93.83
2023-02-15T01:18:49.734Z,93.60
2023-02-15T01:21:18.949Z,93.29
2023-02-15T01:23:46.982Z,93.75
2023-02-15T01:26:15.019Z,94.04
2023-02-15T01:28:42.702Z,93.86
2023-02-15T01:31:11.267Z,94.50
2023-02-15T01:33:40.532Z,94.32
2023-02-15T01:36:08.365Z,94.54
2023-02-15T01:38:36.894Z,95.03
2023-02-15T01:41:24.126Z,94.89
2023-02-15T01:43:54.093Z,95.33
2023-02-15T01:46:25.131Z,95.12
2023-02-15T01:48:57.710Z,94.84
2023-02-15T01:51:26.504Z,94.74
2023-02-15T01:53:56.177Z,94.64
2023-02-15T01:56:25.948Z,94.39
2023-02-15T01:58:56.097Z,94.34
2023-02-15T02:01:23.736Z,93.90
2023-02-15T02:03:58.620Z,93.85
2023-02-15T02:06:26.521Z,93.99
2023-02-15T02:08:55.270Z,93.86
2023-02-15T02:11:22.966Z,93.89
2023-02-15T02:13:51.822Z,93.30
2023-02-15T02:16:23.044Z,93.11
2023-02-15T02:19:00.783Z,93.15
2023-02-15T02:21:51.395Z,93.29
2023-02-15T02:24:55.096Z,93.48
2023-02-15T02:27:31.908Z,93.35
2023-02-15T02:30:12.748Z,93.03
2023-02-15T02:32:55.870Z,93.19
2023-02-15T02:35:28.386Z,94.25
2023-02-15T02:38:03.573Z,95.43
2023-02-15T02:40:37.987Z,95.85
2023-02-15T02:43:10.181Z,96.07
2023-02-15T02:45:41.955Z,95.59
2023-02-15T02:48:14.504Z,95.62
2023-02-15T02:50:42.814Z,96.04
2023-02-15T02:53:11.476Z,96.41
2023-02-15T02:55:42.253Z,96.21
2023-02-15T02:58:12.738Z,96.37
2023-02-15T03:00:42.442Z,95.96
2023-02-15T03:03:15.929Z,96.52
2023-02-15T03:05:46.461Z,96.34
2023-02-15T03:08:14.469Z,96.03
2023-02-15T03:10:42.722Z,95.34
2023-02-15T03:13:10.864Z,95.03
2023-02-15T03:15:58.121Z,95.39
2023-02-15T03:18:30.434Z,95.92
2023-02-15T03:20:58.544Z,96.17
2023-02-15T03:23:27.693Z,96.44
2023-02-15T03:25:58.713Z,96.67
2023-02-15T03:28:29.641Z,96.57
2023-02-15T03:30:59.352Z,96.38
2023-02-15T03:33:28.739Z,96.22
2023-02-15T03:36:00.694Z,96.05
2023-02-15T03:38:32.731Z,95.88
2023-02-15T03:41:13.653Z,96.56
2023-02-15T03:43:48.399Z,96.57
2023-02-15T03:46:21.924Z,96.96
2023-02-15T03:48:54.590Z,97.05
2023-02-15T03:51:37.432Z,96.83
2023-02-15T03:54:06.946Z,97.67
2023-02-15T03:56:36.033Z,97.47
2023-02-15T03:59:21.050Z,97.89
2023-02-15T04:02:01.766Z,98.15
2023-02-15T04:04:34.597Z,98.13
2023-02-15T04:07:02.475Z,98.09
2023-02-15T04:09:47.459Z,97.39
2023-02-15T04:12:15.032Z,97.39
2023-02-15T04:14:59.982Z,97.01
2023-02-15T04:17:27.430Z,96.49
2023-02-15T04:20:14.046Z,94.65
2023-02-15T04:22:59.417Z,95.38
2023-02-15T04:25:26.884Z,95.84
2023-02-15T04:27:56.129Z,94.56
2023-02-15T04:30:25.766Z,94.61
2023-02-15T04:32:53.491Z,93.80
2023-02-15T04:35:23.218Z,94.00
2023-02-15T04:37:50.750Z,94.78
2023-02-15T04:40:19.761Z,95.17
2023-02-15T04:42:49.402Z,94.21
2023-02-15T04:45:17.014Z,93.93
2023-02-15T04:47:44.515Z,94.45
2023-02-15T04:50:12.560Z,94.31
2023-02-15T04:52:41.416Z,94.70
2023-02-15T04:55:09.639Z,94.54
2023-02-15T04:57:37.158Z,94.33
2023-02-15T05:00:05.346Z,94.37
2023-02-15T05:02:32.828Z,95.03
2023-02-15T05:05:00.352Z,95.17
2023-02-15T05:07:27.859Z,95.44
2023-02-15T05:09:56.676Z,95.22
2023-02-15T05:12:24.206Z,95.03
2023-02-15T05:14:51.642Z,94.59
2023-02-15T05:17:19.120Z,95.29
2023-02-15T05:19:46.592Z,94.86
2023-02-15T05:22:14.074Z,94.92
2023-02-15T05:24:59.382Z,93.97
2023-02-15T05:27:45.958Z,94.00
2023-02-15T05:30:15.012Z,94.21
2023-02-15T05:32:42.629Z,94.20
2023-02-15T05:35:14.150Z,94.29
2023-02-15T05:37:41.653Z,94.46
2023-02-15T05:40:09.797Z,94.18
2023-02-15T05:42:38.669Z,94.43
2023-02-15T05:45:07.163Z,94.59
2023-02-15T05:47:35.205Z,94.74
2023-02-15T05:50:02.694Z,95.49
2023-02-15T05:52:30.200Z,95.70
2023-02-15T05:54:57.639Z,96.87
2023-02-15T05:57:25.088Z,97.08
2023-02-15T05:59:53.911Z,97.21
2023-02-15T06:02:21.458Z,97.41
2023-02-15T06:04:48.977Z,97.05
2023-02-15T06:07:16.432Z,97.63
2023-02-15T06:09:43.929Z,97.94
2023-02-15T06:12:11.474Z,98.27
2023-02-15T06:14:38.927Z,98.33
2023-02-15T06:17:07.827Z,98.34
2023-02-15T06:19:35.295Z,98.48
2023-02-15T06:22:02.982Z,98.51
2023-02-15T06:24:30.483Z,98.76
2023-02-15T06:26:57.995Z,98.98
2023-02-15T06:29:25.625Z,99.04
2023-02-15T06:31:53.175Z,98.85
2023-02-15T06:34:22.077Z,98.53
2023-02-15T06:36:49.584Z,98.98
2023-02-15T06:39:17.099Z,98.73
2023-02-15T06:41:44.615Z,98.75
2023-02-15T06:44:12.240Z,98.91
2023-02-15T06:46:39.787Z,99.12
2023-02-15T06:49:07.360Z,99.63
2023-02-15T06:51:36.179Z,99.98
2023-02-15T06:54:03.655Z,99.70
2023-02-15T06:56:31.766Z,99.96
2023-02-15T06:58:59.363Z,100.00
2023-02-15T07:01:26.888Z,100.00
2023-02-15T07:03:54.362Z,100.00
2023-02-15T07:06:21.810Z,100.00
2023-02-15T07:08:50.636Z,100.00
2023-02-15T07:11:35.738Z,100.00
2023-02-15T07:14:03.260Z,100.00
2023-02-15T07:16:31.217Z,100.00
2023-02-15T07:18:58.669Z,100.00
2023-02-15T07:21:26.128Z,100.00
2023-02-15T07:23:58.062Z,100.00
2023-02-15T07:26:25.563Z,100.00
2023-02-15T07:28:53.170Z,100.00
2023-02-15T07:31:20.861Z,100.00
2023-02-15T07:33:48.505Z,100.00
2023-02-15T07:36:15.986Z,100.00
2023-02-15T07:38:44.116Z,100.00
2023-02-15T07:41:14.988Z,100.00
2023-02-15T07:43:43.567Z,100.00
2023-02-15T07:46:13.292Z,99.85
2023-02-15T07:48:41.392Z,100.00
2023-02-15T07:51:14.885Z,99.09
2023-02-15T07:53:43.008Z,99.41
2023-02-15T07:56:14.210Z,99.72
2023-02-15T07:58:53.981Z,99.55
2023-02-15T08:01:22.932Z,99.70
2023-02-15T08:03:50.892Z,100.00
2023-02-15T08:06:18.617Z,100.00
2023-02-15T08:08:46.123Z,100.00
2023-02-15T08:11:34.678Z,100.00
2023-02-15T08:14:04.841Z,99.69
2023-02-15T08:16:34.548Z,100.00
2023-02-15T08:19:05.231Z,100.00
2023-02-15T08:21:33.112Z,100.00
2023-02-15T08:24:01.054Z,100.00
2023-02-15T08:26:30.833Z,99.98
2023-02-15T08:28:58.756Z,99.67
2023-02-15T08:31:26.432Z,99.15
2023-02-15T08:33:55.747Z,99.09
2023-02-15T08:36:24.986Z,98.63
2023-02-15T08:38:52.728Z,98.21
2023-02-15T08:41:21.812Z,97.89
2023-02-15T08:43:52.980Z,97.90
2023-02-15T08:46:20.770Z,98.13
2023-02-15T08:48:48.577Z,98.27
2023-02-15T08:51:17.694Z,98.86
2023-02-15T08:53:47.001Z,99.29
2023-02-15T08:56:14.485Z,99.53
2023-02-15T08:58:41.948Z,99.20
2023-02-15T09:01:18.796Z,99.06
2023-02-15T09:03:47.222Z,98.79
2023-02-15T09:06:15.610Z,98.95
2023-02-15T09:08:43.218Z,99.28
2023-02-15T09:11:11.996Z,99.01
2023-02-15T09:13:40.357Z,99.04
2023-02-15T09:16:09.447Z,99.46
2023-02-15T09:18:40.323Z,99.53
2023-02-15T09:21:10.339Z,99.18
2023-02-15T09:23:38.260Z,99.06
2023-02-15T09:26:07.958Z,98.63
2023-02-15T09:28:35.869Z,98.66
2023-02-15T09:31:10.881Z,98.91
2023-02-15T09:33:41.033Z,98.96
2023-02-15T09:36:17.050Z,98.41
2023-02-15T09:38:44.640Z,98.68
2023-02-15T09:41:26.705Z,98.07
2023-02-15T09:44:01.820Z,97.58
2023-02-15T09:46:46.481Z,97.84
2023-02-15T09:49:20.976Z,97.68
2023-02-15T09:52:14.255Z,96.92
2023-02-15T09:54:50.444Z,96.58
2023-02-15T09:57:22.803Z,96.31
2023-02-15T09:59:58.929Z,95.95
2023-02-15T10:02:38.575Z,96.23
2023-02-15T10:05:18.000Z,96.82
2023-02-15T10:08:00.758Z,96.73
2023-02-15T10:10:37.073Z,96.53
2023-02-15T10:13:17.263Z,96.41
2023-02-15T10:16:01.954Z,96.69
2023-02-15T10:18:38.945Z,96.91
2023-02-15T10:21:13.239Z,96.60
2023-02-15T10:23:51.536Z,96.41
2023-02-15T10:26:23.589Z,96.30
2023-02-15T10:28:52.373Z,96.03
2023-02-15T10:31:26.268Z,96.08
2023-02-15T10:34:11.040Z,95.96
2023-02-15T10:36:59.689Z,96.12
2023-02-15T10:39:30.888Z,96.06
2023-02-15T10:42:08.329Z,96.53
2023-02-15T10:44:45.303Z,95.92
2023-02-15T10:47:31.802Z,96.01
2023-02-15T10:50:16.094Z,95.21
2023-02-15T10:52:55.542Z,95.98
2023-02-15T10:55:35.743Z,95.85
2023-02-15T10:58:12.431Z,95.54
2023-02-15T11:00:43.968Z,95.13
2023-02-15T11:03:29.820Z,95.06
2023-02-15T11:06:03.379Z,95.75
2023-02-15T11:08:34.787Z,95.54
2023-02-15T11:11:06.310Z,95.55
2023-02-15T11:13:37.002Z,95.20
2023-02-15T11:16:07.344Z,95.02
2023-02-15T11:18:37.782Z,95.38
2023-02-15T11:21:09.777Z,95.53
2023-02-15T11:23:42.769Z,95.81
2023-02-15T11:26:15.299Z,95.95
2023-02-15T11:28:47.482Z,95.84
2023-02-15T11:31:18.388Z,95.34
2023-02-15T11:33:48.822Z,95.58
2023-02-15T11:36:19.082Z,95.39
2023-02-15T11:38:49.115Z,95.55
2023-02-15T11:41:20.047Z,95.96
2023-02-15T11:43:51.577Z,95.97
2023-02-15T11:46:20.559Z,96.39
2023-02-15T11:48:48.127Z,96.28
2023-02-15T11:51:17.647Z,96.20
2023-02-15T11:53:45.532Z,96.00
2023-02-15T11:56:18.931Z,95.99
2023-02-15T11:58:49.573Z,95.79
2023-02-15T12:01:19.554Z,95.34
2023-02-15T12:03:49.575Z,95.51
2023-02-15T12:06:25.562Z,95.35
2023-02-15T12:09:02.234Z,95.22
2023-02-15T12:11:35.851Z,95.28
2023-02-15T12:14:06.159Z,95.46
2023-02-15T12:16:39.012Z,95.21
2023-02-15T12:19:06.802Z,94.99
2023-02-15T12:21:36.514Z,94.17
2023-02-15T12:24:06.310Z,94.28
2023-02-15T12:26:37.002Z,93.98
2023-02-15T12:29:10.175Z,94.32
2023-02-15T12:31:41.343Z,94.20
2023-02-15T12:34:13.631Z,93.74
2023-02-15T12:36:45.398Z,94.14
2023-02-15T12:39:21.703Z,93.49
2023-02-15T12:42:04.482Z,93.44
2023-02-15T12:44:33.440Z,93.60
2023-02-15T12:47:03.551Z,93.31
2023-02-15T12:49:32.806Z,92.23
2023-02-15T12:52:02.829Z,91.67
2023-02-15T12:54:36.356Z,91.94
2023-02-15T12:57:27.473Z,90.58
2023-02-15T12:59:57.246Z,90.60
2023-02-15T13:02:28.170Z,91.01
2023-02-15T13:04:56.173Z,91.59
2023-02-15T13:07:27.274Z,91.63
2023-02-15T13:09:55.224Z,91.63
2023-02-15T13:12:27.326Z,90.98
2023-02-15T13:14:57.134Z,91.29
2023-02-15T13:17:30.276Z,92.16
2023-02-15T13:20:00.304Z,92.43
2023-02-15T13:22:30.524Z,92.55
2023-02-15T13:25:00.329Z,92.79
2023-02-15T13:27:36.946Z,93.07
2023-02-15T13:30:16.743Z,92.84
2023-02-15T13:32:44.443Z,91.96
2023-02-15T13:35:16.557Z,91.89
2023-02-15T13:38:02.122Z,92.10
2023-02-15T13:40:35.549Z,92.38
2023-02-15T13:43:07.993Z,91.86
2023-02-15T13:45:41.990Z,91.84
2023-02-15T13:48:17.108Z,91.53
2023-02-15T13:50:54.854Z,91.58
2023-02-15T13:53:43.189Z,92.01
2023-02-15T13:56:16.200Z,92.32
2023-02-15T13:59:14.489Z,92.67
2023-02-15T14:01:47.289Z,93.08
2023-02-15T14:04:43.524Z,92.85
2023-02-15T14:07:33.300Z,92.59
2023-02-15T14:10:13.894Z,92.55
2023-02-15T14:12:57.013Z,91.88
2023-02-15T14:15:30.573Z,91.62
2023-02-15T14:18:12.839Z,91.59
2023-02-15T14:20:51.008Z,92.12
2023-02-15T14:23:31.055Z,92.49
2023-02-15T14:26:02.640Z,92.28
2023-02-15T14:28:35.665Z,92.00
2023-02-15T14:31:05.512Z,92.05
2023-02-15T14:33:37.045Z,92.16
2023-02-15T14:36:07.411Z,92.61
2023-02-15T14:38:46.842Z,93.09
2023-02-15T14:41:18.665Z,92.81
2023-02-15T14:43:51.692Z,92.40
2023-02-15T14:46:25.652Z,92.56
2023-02-15T14:48:56.174Z,92.65
2023-02-15T14:51:59.699Z,92.42
2023-02-15T14:54:58.537Z,92.30
2023-02-15T14:57:28.743Z,91.79
2023-02-15T15:00:00.402Z,92.07
2023-02-15T15:02:30.508Z,92.29
2023-02-15T15:05:10.416Z,92.66
2023-02-15T15:07:40.859Z,92.35
2023-02-15T15:10:37.693Z,92.78
2023-02-15T15:13:38.971Z,92.91
2023-02-15T15:16:30.431Z,93.01
2023-02-15T15:18:58.700Z,92.89
2023-02-15T15:21:54.287Z,93.55
2023-02-15T15:24:56.301Z,93.18
2023-02-15T15:27:46.438Z,93.55
2023-02-15T15:30:51.969Z,93.08
2023-02-15T15:33:52.889Z,93.02
2023-02-15T15:36:37.645Z,92.10
2023-02-15T15:39:17.819Z,91.51
2023-02-15T15:41:50.714Z,91.83
2023-02-15T15:45:00.504Z,93.23
2023-02-15T15:47:36.994Z,93.52
2023-02-15T15:50:14.372Z,93.51
2023-02-15T15:52:44.671Z,93.76
2023-02-15T15:55:18.032Z,93.84
2023-02-15T15:57:46.904Z,93.97
2023-02-15T16:00:31.736Z,94.14
2023-02-15T16:02:59.377Z,94.61
2023-02-15T16:05:27.019Z,94.67
2023-02-15T16:07:54.620Z,95.07
2023-02-15T16:10:24.359Z,95.08
2023-02-15T16:12:52.465Z,95.33
2023-02-15T16:15:22.140Z,95.46
2023-02-15T16:17:54.647Z,95.87
2023-02-15T16:20:25.502Z,95.82
2023-02-15T16:22:58.193Z,96.03
2023-02-15T16:25:32.458Z,95.80
2023-02-15T16:28:08.328Z,95.46
2023-02-15T16:30:37.101Z,95.63
2023-02-15T16:33:08.757Z,95.61
2023-02-15T16:35:37.292Z,95.50
2023-02-15T16:38:05.341Z,95.53
2023-02-15T16:40:42.452Z,95.69
2023-02-15T16:43:16.246Z,95.69
2023-02-15T16:45:44.100Z,95.46
2023-02-15T16:48:17.207Z,95.27
2023-02-15T16:50:49.774Z,95.32
2023-02-15T16:53:20.461Z,95.47
2023-02-15T16:55:51.498Z,95.46
2023-02-15T16:58:21.498Z,95.49
2023-02-15T17:00:49.341Z,95.69
2023-02-15T17:03:29.114Z,96.39
2023-02-15T17:05:58.245Z,96.07
2023-02-15T17:08:33.212Z,95.66
2023-02-15T17:11:15.232Z,95.38
2023-02-15T17:14:15.325Z,95.21
2023-02-15T17:16:45.509Z,95.92
2023-02-15T17:19:18.498Z,96.29
2023-02-15T17:21:51.232Z,96.15
2023-02-15T17:24:22.352Z,96.90
2023-02-15T17:26:53.011Z,97.11
2023-02-15T17:29:25.798Z,97.70
2023-02-15T17:31:58.473Z,97.50
2023-02-15T17:35:03.920Z,97.63
2023-02-15T17:37:33.734Z,98.00
2023-02-15T17:40:09.519Z,97.84
2023-02-15T17:42:38.839Z,97.75
2023-02-15T17:45:06.695Z,97.31
2023-02-15T17:47:34.583Z,97.64
2023-02-15T17:50:05.799Z,97.14
2023-02-15T17:52:33.887Z,97.06
2023-02-15T17:55:21.213Z,96.61
2023-02-15T17:57:48.916Z,97.04
2023-02-15T18:00:36.867Z,96.73
2023-02-15T18:03:22.669Z,95.51
2023-02-15T18:06:09.249Z,95.62
2023-02-15T18:08:54.436Z,96.43
2023-02-15T18:11:40.481Z,97.16
2023-02-15T18:14:09.321Z,97.77
2023-02-15T18:16:40.725Z,97.67
2023-02-15T18:19:12.523Z,97.65
2023-02-15T18:21:41.423Z,97.83
2023-02-15T18:24:15.285Z,97.80
2023-02-15T18:26:42.778Z,97.42
2023-02-15T18:29:10.551Z,97.52
2023-02-15T18:31:38.347Z,97.07
2023-02-15T18:34:06.722Z,96.88
2023-02-15T18:36:38.309Z,96.61
2023-02-15T18:39:23.610Z,96.87
2023-02-15T18:41:51.097Z,97.44
2023-02-15T18:44:18.589Z,97.66
2023-02-15T18:46:46.077Z,97.78
2023-02-15T18:49:13.637Z,97.74
2023-02-15T18:51:43.786Z,98.08
2023-02-15T18:54:18.781Z,98.00
2023-02-15T18:56:48.467Z,98.57
2023-02-15T18:59:19.821Z,98.45
2023-02-15T19:01:49.755Z,98.50
2023-02-15T19:04:18.352Z,98.09
2023-02-15T19:06:51.059Z,98.23
2023-02-15T19:09:23.577Z,98.27
2023-02-15T19:11:56.115Z,98.53
2023-02-15T19:14:30.340Z,97.74
2023-02-15T19:16:59.512Z,97.94
2023-02-15T19:19:27.864Z,97.83
2023-02-15T19:21:55.955Z,97.98
2023-02-15T19:24:28.025Z,97.72
2023-02-15T19:26:57.917Z,98.19
2023-02-15T19:29:27.324Z,97.88
2023-02-15T19:31:55.045Z,97.56
2023-02-15T19:34:22.898Z,98.02
2023-02-15T19:36:52.520Z,98.08
2023-02-15T19:39:27.115Z,98.26
2023-02-15T19:41:54.828Z,98.50
2023-02-15T19:44:23.006Z,98.41
2023-02-15T19:46:50.601Z,98.60
2023-02-15T19:49:36.332Z,98.41
2023-02-15T19:52:04.436Z,98.30
2023-02-15T19:54:37.170Z,98.08
2023-02-15T19:57:09.585Z,98.37
2023-02-15T19:59:37.276Z,98.46
2023-02-15T20:02:05.783Z,98.18
2023-02-15T20:04:37.527Z,98.07
2023-02-15T20:07:08.172Z,97.98
2023-02-15T20:09:40.822Z,97.79
2023-02-15T20:12:17.510Z,98.15
2023-02-15T20:14:45.075Z,98.28
2023-02-15T20:17:13.228Z,98.44
2023-02-15T20:19:41.582Z,97.73
2023-02-15T20:22:12.840Z,98.07
2023-02-15T20:24:41.774Z,98.03
2023-02-15T20:27:12.176Z,97.66
2023-02-15T20:29:39.816Z,97.40
2023-02-15T20:32:12.116Z,97.70
2023-02-15T20:34:40.253Z,98.30
2023-02-15T20:37:19.101Z,98.75
2023-02-15T20:39:48.697Z,98.60
2023-02-15T20:42:17.180Z,98.84
2023-02-15T20:44:44.923Z,99.15
2023-02-15T20:47:12.557Z,98.73
2023-02-15T20:49:40.573Z,98.43
2023-02-15T20:52:18.611Z,99.03
2023-02-15T20:54:46.370Z,98.68
2023-02-15T20:57:16.554Z,99.08
2023-02-15T20:59:44.283Z,98.90
2023-02-15T21:02:20.125Z,98.52
2023-02-15T21:04:47.931Z,98.46
2023-02-15T21:07:16.604Z,98.95
2023-02-15T21:09:44.344Z,98.66
2023-02-15T21:12:15.330Z,98.66
2023-02-15T21:14:43.400Z,98.64
2023-02-15T21:17:12.611Z,99.02
2023-02-15T21:19:41.288Z,99.13
2023-02-15T21:22:12.125Z,99.02
2023-02-15T21:24:39.917Z,99.20
2023-02-15T21:27:36.885Z,99.13
2023-02-15T21:30:10.966Z,98.67
2023-02-15T21:32:38.732Z,98.93
2023-02-15T21:35:07.414Z,98.24
2023-02-15T21:37:36.541Z,98.23
2023-02-15T21:40:06.994Z,98.63
2023-02-15T21:42:52.059Z,98.35
2023-02-15T21:45:38.865Z,98.62
2023-02-15T21:48:06.764Z,98.82
2023-02-15T21:50:53.751Z,97.75
2023-02-15T21:53:22.760Z,97.89
2023-02-15T21:55:50.546Z,98.46
2023-02-15T21:58:20.740Z,98.54
2023-02-15T22:00:50.305Z,98.46
2023-02-15T22:03:17.968Z,98.10
2023-02-15T22:05:45.724Z,98.20
2023-02-15T22:08:14.142Z,98.32
2023-02-15T22:10:44.873Z,98.10
2023-02-15T22:13:16.042Z,97.52
2023-02-15T22:15:46.608Z,97.65
2023-02-15T22:18:34.141Z,98.35
2023-02-15T22:21:04.630Z,98.29
2023-02-15T22:23:36.677Z,98.90
2023-02-15T22:26:08.023Z,98.76
2023-02-15T22:28:40.253Z,98.73
2023-02-15T22:31:15.683Z,98.90
2023-02-15T22:33:46.741Z,99.14
2023-02-15T22:36:24.901Z,98.71
2023-02-15T22:38:52.639Z,98.57
2023-02-15T22:41:20.611Z,98.73
2023-02-15T22:43:50.255Z,98.39
2023-02-15T22:46:21.218Z,98.44
2023-02-15T22:48:50.503Z,98.53
2023-02-15T22:51:20.991Z,98.20
2023-02-15T22:53:49.595Z,98.33
2023-02-15T22:56:20.120Z,98.27
2023-02-15T22:58:53.162Z,98.40
2023-02-15T23:01:24.635Z,98.68
2023-02-15T23:03:55.325Z,99.03
2023-02-15T23:06:23.116Z,98.60
2023-02-15T23:08:50.893Z,99.53
2023-02-15T23:11:19.946Z,98.98
2023-02-15T23:13:49.945Z,98.97
2023-02-15T23:16:21.207Z,98.64
2023-02-15T23:18:49.412Z,99.23
2023-02-15T23:21:21.697Z,99.19
2023-02-15T23:23:50.805Z,99.45
2023-02-15T23:26:19.756Z,99.64
2023-02-15T23:28:47.737Z,99.34
2023-02-15T23:31:17.418Z,99.21
2023-02-15T23:33:45.696Z,99.38
2023-02-15T23:36:26.190Z,99.69
2023-02-15T23:38:54.047Z,99.82
2023-02-15T23:41:22.934Z,99.74
2023-02-15T23:43:54.980Z,99.74
2023-02-15T23:46:31.202Z,99.78
2023-02-15T23:48:58.681Z,99.57
2023-02-15T23:51:33.370Z,100.00
2023-02-15T23:54:00.860Z,99.90
2023-02-15T23:56:28.293Z,99.70
2023-02-15T23:58:55.778Z,99.57
